createdAt,value
2023-05-15T00:00:19.547Z,93.50
2023-05-15T00:02:47.147Z,93.60
2023-05-15T00:05:14.475Z,93.80
2023-05-15T00:07:42.208Z,93.90
2023-05-15T00:10:09.503Z,94.00
2023-05-15T00:12:37.129Z,94.10
2023-05-15T00:15:04.799Z,94.20
2023-05-15T00:17:32.282Z,94.30
2023-05-15T00:20:00.741Z,94.40
2023-05-15T00:22:28.064Z,94.50
2023-05-15T00:24:55.450Z,94.60
2023-05-15T00:27:22.755Z,94.70
2023-05-15T00:29:50.185Z,94.80
2023-05-15T00:32:17.589Z,94.90
2023-05-15T00:34:44.784Z,95.00
2023-05-15T00:37:11.957Z,95.20
2023-05-15T00:39:39.184Z,95.20
2023-05-15T00:42:08.781Z,95.30
2023-05-15T00:44:36.618Z,95.40
2023-05-15T00:47:05.632Z,95.60
2023-05-15T00:49:35.685Z,95.70
2023-05-15T00:52:04.151Z,95.80
2023-05-15T00:54:31.170Z,96.00
2023-05-15T00:56:59.418Z,96.10
2023-05-15T00:59:31.863Z,96.30
2023-05-15T01:01:59.044Z,96.50
2023-05-15T01:04:26.310Z,96.60
2023-05-15T01:06:57.189Z,96.80
2023-05-15T01:09:30.263Z,96.90
2023-05-15T01:11:59.654Z,97.00
2023-05-15T01:14:27.791Z,97.10
2023-05-15T01:16:54.983Z,97.10
2023-05-15T01:19:22.432Z,97.20
2023-05-15T01:21:52.474Z,97.30
2023-05-15T01:25:07.965Z,97.40
2023-05-15T01:27:47.921Z,97.40
2023-05-15T01:30:31.168Z,97.40
2023-05-15T01:33:07.242Z,97.50
2023-05-15T01:35:50.068Z,97.70
2023-05-15T01:38:30.770Z,97.70
2023-05-15T01:41:05.404Z,97.80
2023-05-15T01:43:35.458Z,97.90
2023-05-15T01:46:03.697Z,98.00
2023-05-15T01:48:33.692Z,98.10
2023-05-15T01:51:05.092Z,98.20
2023-05-15T01:53:36.470Z,98.30
2023-05-15T01:56:06.890Z,98.40
2023-05-15T01:58:36.429Z,98.50
2023-05-15T02:01:05.581Z,98.60
2023-05-15T02:03:36.959Z,98.70
2023-05-15T02:06:06.261Z,99.00
2023-05-15T02:08:35.020Z,99.10
2023-05-15T02:11:03.578Z,99.30
2023-05-15T02:13:32.388Z,99.50
2023-05-15T02:15:59.709Z,99.60
2023-05-15T02:18:28.705Z,99.80
2023-05-15T02:20:56.018Z,99.90
2023-05-15T02:23:23.126Z,99.90
2023-05-15T02:26:05.660Z,99.90
2023-05-15T02:28:40.337Z,99.90
2023-05-15T02:31:16.250Z,99.90
2023-05-15T02:34:03.021Z,99.90
2023-05-15T02:36:36.643Z,99.90
2023-05-15T02:39:04.486Z,99.90
2023-05-15T02:41:33.713Z,99.90
2023-05-15T02:44:01.895Z,99.90
2023-05-15T02:46:29.946Z,99.90
2023-05-15T02:48:57.635Z,99.90
2023-05-15T02:51:24.866Z,99.90
2023-05-15T02:53:52.882Z,99.90
2023-05-15T02:56:20.198Z,99.90
2023-05-15T02:58:47.336Z,99.90
2023-05-15T03:01:14.543Z,99.90
2023-05-15T03:03:41.816Z,99.90
2023-05-15T03:06:08.935Z,99.90
2023-05-15T03:08:36.232Z,99.90
2023-05-15T03:11:03.686Z,99.90
2023-05-15T03:13:31.027Z,99.90
2023-05-15T03:15:58.151Z,99.90
2023-05-15T03:18:25.439Z,99.90
2023-05-15T03:20:53.630Z,99.90
2023-05-15T03:23:21.057Z,99.90
2023-05-15T03:25:48.327Z,99.90
2023-05-15T03:28:15.848Z,99.90
2023-05-15T03:30:46.220Z,99.90
2023-05-15T03:33:13.424Z,99.90
2023-05-15T03:35:40.700Z,99.90
2023-05-15T03:38:07.917Z,99.90
2023-05-15T03:40:35.321Z,99.90
2023-05-15T03:43:02.578Z,99.90
2023-05-15T03:45:29.689Z,99.90
2023-05-15T03:47:56.948Z,99.90
2023-05-15T03:50:24.050Z,99.90
2023-05-15T03:52:51.582Z,99.90
2023-05-15T03:55:19.455Z,99.90
2023-05-15T03:57:47.094Z,99.90
2023-05-15T04:00:15.195Z,99.90
2023-05-15T04:02:43.054Z,99.90
2023-05-15T04:05:10.496Z,99.90
2023-05-15T04:07:38.286Z,99.90
2023-05-15T04:10:06.358Z,99.90
2023-05-15T04:12:35.331Z,99.90
2023-05-15T04:15:23.885Z,99.90
2023-05-15T04:17:53.330Z,99.90
2023-05-15T04:20:22.171Z,99.90
2023-05-15T04:22:49.865Z,99.90
2023-05-15T04:25:18.363Z,99.90
2023-05-15T04:27:46.264Z,99.90
2023-05-15T04:30:13.838Z,99.90
2023-05-15T04:32:42.076Z,99.90
2023-05-15T04:35:12.682Z,99.90
2023-05-15T04:37:43.543Z,99.90
2023-05-15T04:40:11.200Z,99.90
2023-05-15T04:42:39.530Z,99.90
2023-05-15T04:45:07.982Z,99.90
2023-05-15T04:47:36.009Z,99.90
2023-05-15T04:50:03.282Z,99.90
2023-05-15T04:52:30.579Z,99.90
2023-05-15T04:54:57.871Z,99.90
2023-05-15T04:57:26.071Z,99.90
2023-05-15T04:59:53.725Z,99.90
2023-05-15T05:02:22.903Z,99.90
2023-05-15T05:04:50.400Z,99.90
2023-05-15T05:07:17.638Z,99.90
2023-05-15T05:09:45.062Z,99.90
2023-05-15T05:12:12.502Z,99.90
2023-05-15T05:14:42.291Z,99.90
2023-05-15T05:17:10.069Z,99.90
2023-05-15T05:19:37.519Z,99.90
2023-05-15T05:22:06.041Z,99.90
2023-05-15T05:24:33.592Z,99.90
2023-05-15T05:27:01.028Z,99.90
2023-05-15T05:29:28.211Z,99.90
2023-05-15T05:31:56.144Z,99.90
2023-05-15T05:34:23.580Z,99.90
2023-05-15T05:36:51.788Z,99.90
2023-05-15T05:39:19.324Z,99.90
2023-05-15T05:41:46.486Z,99.90
2023-05-15T05:44:13.869Z,99.90
2023-05-15T05:46:41.171Z,99.90
2023-05-15T05:49:08.264Z,99.90
2023-05-15T05:51:38.988Z,99.90
2023-05-15T05:54:06.446Z,99.90
2023-05-15T05:56:33.807Z,99.90
2023-05-15T05:59:02.339Z,99.90
2023-05-15T06:01:29.918Z,99.90
2023-05-15T06:03:57.879Z,99.90
2023-05-15T06:06:25.146Z,99.90
2023-05-15T06:08:54.180Z,99.90
2023-05-15T06:11:25.135Z,99.90
2023-05-15T06:13:53.172Z,99.90
2023-05-15T06:16:20.551Z,99.90
2023-05-15T06:18:47.674Z,99.90
2023-05-15T06:21:14.866Z,99.90
2023-05-15T06:23:42.213Z,99.90
2023-05-15T06:26:09.845Z,99.90
2023-05-15T06:28:36.971Z,99.90
2023-05-15T06:31:04.467Z,99.90
2023-05-15T06:33:31.876Z,99.90
2023-05-15T06:35:59.185Z,99.90
2023-05-15T06:38:26.825Z,99.90
2023-05-15T06:40:54.036Z,99.90
2023-05-15T06:43:21.127Z,99.90
2023-05-15T06:45:49.343Z,99.90
2023-05-15T06:48:18.058Z,99.90
2023-05-15T06:50:46.329Z,99.90
2023-05-15T06:53:14.715Z,99.90
2023-05-15T06:55:42.336Z,99.90
2023-05-15T06:58:09.654Z,99.90
2023-05-15T07:00:36.795Z,99.90
2023-05-15T07:03:04.072Z,99.90
2023-05-15T07:05:31.784Z,99.90
2023-05-15T07:07:58.901Z,99.90
2023-05-15T07:10:26.469Z,99.90
2023-05-15T07:12:54.172Z,99.90
2023-05-15T07:15:21.487Z,99.90
2023-05-15T07:17:48.710Z,99.90
2023-05-15T07:20:15.989Z,99.90
2023-05-15T07:22:55.027Z,99.90
2023-05-15T07:25:22.881Z,99.90
2023-05-15T07:27:50.713Z,99.90
2023-05-15T07:30:18.712Z,99.90
2023-05-15T07:32:45.968Z,99.90
2023-05-15T07:35:13.066Z,99.90
2023-05-15T07:37:41.316Z,99.90
2023-05-15T07:40:08.862Z,99.90
2023-05-15T07:42:35.945Z,99.90
2023-05-15T07:45:03.691Z,99.90
2023-05-15T07:47:30.817Z,99.90
2023-05-15T07:49:58.065Z,99.90
2023-05-15T07:52:25.334Z,99.90
2023-05-15T07:54:52.337Z,99.90
2023-05-15T07:57:20.148Z,99.90
2023-05-15T07:59:47.411Z,99.90
2023-05-15T08:02:14.668Z,99.90
2023-05-15T08:04:41.848Z,99.90
2023-05-15T08:07:09.210Z,99.90
2023-05-15T08:09:36.296Z,99.90
2023-05-15T08:12:23.764Z,99.90
2023-05-15T08:14:52.096Z,99.90
2023-05-15T08:17:19.796Z,99.90
2023-05-15T08:19:47.736Z,99.90
2023-05-15T08:22:15.215Z,99.90
2023-05-15T08:24:42.446Z,99.90
2023-05-15T08:27:10.032Z,99.90
2023-05-15T08:29:39.471Z,99.90
2023-05-15T08:32:09.023Z,99.90
2023-05-15T08:34:36.265Z,99.90
2023-05-15T08:37:07.997Z,99.90
2023-05-15T08:39:35.307Z,99.90
2023-05-15T08:42:21.723Z,99.90
2023-05-15T08:44:49.521Z,99.90
2023-05-15T08:47:19.275Z,99.90
2023-05-15T08:50:07.194Z,99.90
2023-05-15T08:52:34.923Z,99.90
2023-05-15T08:55:03.263Z,99.90
2023-05-15T08:57:31.651Z,99.90
2023-05-15T08:59:59.364Z,99.90
2023-05-15T09:02:27.383Z,99.90
2023-05-15T09:04:54.607Z,99.90
2023-05-15T09:07:22.186Z,99.90
2023-05-15T09:09:50.459Z,98.60
2023-05-15T09:12:18.325Z,97.90
2023-05-15T09:14:47.096Z,97.40
2023-05-15T09:17:14.315Z,96.90
2023-05-15T09:19:42.917Z,96.30
2023-05-15T09:22:26.074Z,95.90
2023-05-15T09:24:53.546Z,95.70
2023-05-15T09:27:21.192Z,95.10
2023-05-15T09:29:51.517Z,94.90
2023-05-15T09:32:19.297Z,94.80
2023-05-15T09:34:46.604Z,94.30
2023-05-15T09:37:30.270Z,93.60
2023-05-15T09:40:09.579Z,93.10
2023-05-15T09:42:37.447Z,92.90
2023-05-15T09:45:05.344Z,92.60
2023-05-15T09:47:32.875Z,92.20
2023-05-15T09:50:00.131Z,91.70
2023-05-15T09:52:29.344Z,91.80
2023-05-15T09:54:57.619Z,91.70
2023-05-15T09:57:24.812Z,91.30
2023-05-15T09:59:52.043Z,90.80
2023-05-15T10:02:32.409Z,90.30
2023-05-15T10:05:00.505Z,89.90
2023-05-15T10:07:35.797Z,89.50
2023-05-15T10:10:04.287Z,88.50
2023-05-15T10:12:32.551Z,88.00
2023-05-15T10:15:01.428Z,87.40
2023-05-15T10:17:31.015Z,86.60
2023-05-15T10:20:00.910Z,85.60
2023-05-15T10:22:31.111Z,84.80
2023-05-15T10:25:13.768Z,84.80
2023-05-15T10:27:41.981Z,83.00
2023-05-15T10:30:11.340Z,82.40
2023-05-15T10:32:42.043Z,82.40
2023-05-15T10:35:12.092Z,82.00
2023-05-15T10:37:44.262Z,82.00
2023-05-15T10:40:13.005Z,81.20
2023-05-15T10:42:43.265Z,81.20
2023-05-15T10:45:10.952Z,80.60
2023-05-15T10:47:39.986Z,80.40
2023-05-15T10:50:08.095Z,79.70
2023-05-15T10:52:37.728Z,79.80
2023-05-15T10:55:10.385Z,80.20
2023-05-15T10:57:37.925Z,79.90
2023-05-15T11:00:29.264Z,79.70
2023-05-15T11:02:57.513Z,79.90
2023-05-15T11:05:25.687Z,80.00
2023-05-15T11:08:26.010Z,79.70
2023-05-15T11:10:54.448Z,80.30
2023-05-15T11:13:22.098Z,80.50
2023-05-15T11:15:49.392Z,80.50
2023-05-15T11:18:17.148Z,80.40
2023-05-15T11:20:50.128Z,79.60
2023-05-15T11:23:22.210Z,78.50
2023-05-15T11:25:59.101Z,78.00
2023-05-15T11:28:30.013Z,76.70
2023-05-15T11:31:07.184Z,76.60
2023-05-15T11:33:34.537Z,75.60
2023-05-15T11:36:04.997Z,75.30
2023-05-15T11:38:39.424Z,74.20
2023-05-15T11:41:18.775Z,73.90
2023-05-15T11:43:46.943Z,73.70
2023-05-15T11:46:15.221Z,73.10
2023-05-15T11:48:50.510Z,73.10
2023-05-15T11:51:19.725Z,73.20
2023-05-15T11:53:50.722Z,73.40
2023-05-15T11:56:23.330Z,74.10
2023-05-15T11:58:57.226Z,74.60
2023-05-15T12:01:24.864Z,74.50
2023-05-15T12:03:54.643Z,74.10
2023-05-15T12:06:23.028Z,74.00
2023-05-15T12:08:53.798Z,74.40
2023-05-15T12:11:25.366Z,74.20
2023-05-15T12:13:54.580Z,74.60
2023-05-15T12:16:28.905Z,75.50
2023-05-15T12:19:00.096Z,75.80
2023-05-15T12:21:27.986Z,75.90
2023-05-15T12:26:27.635Z,76.80
2023-05-15T12:28:55.932Z,77.70
2023-05-15T12:31:30.872Z,78.30
2023-05-15T12:33:58.296Z,78.80
2023-05-15T12:36:29.892Z,79.20
2023-05-15T12:38:58.410Z,79.60
2023-05-15T12:41:31.569Z,80.00
2023-05-15T12:43:59.327Z,80.60
2023-05-15T12:46:30.231Z,81.10
2023-05-15T12:49:01.065Z,81.20
2023-05-15T12:51:30.256Z,81.10
2023-05-15T12:54:00.115Z,80.80
2023-05-15T12:56:30.340Z,80.80
2023-05-15T12:58:57.661Z,80.60
2023-05-15T13:01:24.994Z,80.90
2023-05-15T13:03:53.218Z,80.60
2023-05-15T13:06:23.932Z,80.50
2023-05-15T13:08:51.195Z,80.60
2023-05-15T13:11:19.266Z,80.40
2023-05-15T13:13:48.681Z,80.60
2023-05-15T13:16:37.020Z,80.00
2023-05-15T13:19:04.948Z,79.30
2023-05-15T13:21:32.345Z,79.40
2023-05-15T13:23:59.615Z,79.90
2023-05-15T13:26:26.841Z,80.30
2023-05-15T13:28:54.210Z,80.40
2023-05-15T13:31:21.693Z,80.80
2023-05-15T13:33:49.361Z,81.30
2023-05-15T13:36:16.509Z,82.30
2023-05-15T13:38:43.728Z,82.70
2023-05-15T13:41:11.151Z,83.10
2023-05-15T13:43:38.421Z,83.40
2023-05-15T13:46:05.790Z,83.80
2023-05-15T13:48:32.898Z,83.50
2023-05-15T13:51:00.035Z,83.00
2023-05-15T13:53:27.414Z,82.40
2023-05-15T13:55:54.725Z,82.20
2023-05-15T13:58:22.130Z,81.80
2023-05-15T14:00:49.509Z,81.40
2023-05-15T14:03:16.924Z,81.00
2023-05-15T14:05:44.313Z,80.30
2023-05-15T14:08:11.564Z,79.60
2023-05-15T14:10:38.912Z,78.50
2023-05-15T14:13:06.308Z,77.50
2023-05-15T14:15:33.648Z,77.10
2023-05-15T14:18:01.023Z,76.40
2023-05-15T14:20:28.427Z,77.00
2023-05-15T14:22:56.387Z,76.10
2023-05-15T14:25:24.734Z,75.80
2023-05-15T14:27:52.158Z,75.70
2023-05-15T14:30:19.295Z,75.30
2023-05-15T14:32:46.638Z,75.00
2023-05-15T14:35:14.015Z,74.70
2023-05-15T14:37:41.733Z,74.30
2023-05-15T14:40:09.724Z,73.80
2023-05-15T14:42:36.883Z,73.50
2023-05-15T14:45:05.093Z,73.50
2023-05-15T14:47:32.433Z,73.30
2023-05-15T14:49:59.946Z,73.30
2023-05-15T14:52:27.098Z,73.20
2023-05-15T14:55:07.919Z,73.00
2023-05-15T14:57:36.255Z,72.80
2023-05-15T15:00:06.416Z,72.10
2023-05-15T15:02:35.695Z,71.20
2023-05-15T15:05:04.752Z,70.90
2023-05-15T15:07:52.073Z,70.90
2023-05-15T15:10:19.314Z,70.60
2023-05-15T15:12:46.690Z,70.40
2023-05-15T15:15:13.996Z,69.60
2023-05-15T15:17:41.504Z,69.30
2023-05-15T15:20:09.487Z,69.40
2023-05-15T15:22:36.857Z,69.50
2023-05-15T15:25:04.743Z,69.20
2023-05-15T15:27:37.243Z,69.10
2023-05-15T15:30:05.526Z,69.40
2023-05-15T15:32:33.095Z,69.60
2023-05-15T15:35:00.360Z,69.70
2023-05-15T15:37:35.067Z,69.80
2023-05-15T15:40:06.283Z,70.20
2023-05-15T15:42:36.658Z,70.60
2023-05-15T15:45:05.839Z,70.80
2023-05-15T15:47:33.095Z,70.80
2023-05-15T15:50:00.219Z,71.00
2023-05-15T15:52:27.973Z,71.10
2023-05-15T15:54:55.219Z,71.40
2023-05-15T15:57:22.840Z,71.00
2023-05-15T15:59:49.989Z,70.80
2023-05-15T16:02:17.749Z,70.50
2023-05-15T16:04:45.063Z,70.50
2023-05-15T16:07:12.403Z,70.50
2023-05-15T16:09:39.523Z,70.50
2023-05-15T16:12:06.859Z,70.70
2023-05-15T16:14:34.175Z,71.10
2023-05-15T16:17:03.995Z,71.40
2023-05-15T16:19:31.528Z,72.00
2023-05-15T16:21:58.801Z,72.30
2023-05-15T16:24:26.574Z,72.80
2023-05-15T16:26:53.719Z,74.10
2023-05-15T16:29:21.221Z,75.60
2023-05-15T16:31:48.655Z,76.90
2023-05-15T16:34:16.025Z,78.10
2023-05-15T16:36:43.135Z,79.30
2023-05-15T16:39:10.224Z,80.50
2023-05-15T16:41:37.450Z,81.50
2023-05-15T16:44:06.399Z,82.50
2023-05-15T16:46:33.793Z,83.40
2023-05-15T16:49:01.001Z,84.40
2023-05-15T16:51:28.271Z,85.00
2023-05-15T16:53:56.726Z,85.50
2023-05-15T16:56:24.610Z,86.00
2023-05-15T16:58:53.403Z,86.40
2023-05-15T17:01:20.691Z,86.60
2023-05-15T17:03:48.023Z,86.80
2023-05-15T17:06:15.063Z,87.00
2023-05-15T17:08:43.815Z,87.30
2023-05-15T17:11:11.653Z,87.80
2023-05-15T17:13:38.701Z,88.20
2023-05-15T17:16:06.107Z,88.70
2023-05-15T17:18:33.343Z,89.80
2023-05-15T17:21:04.375Z,89.50
2023-05-15T17:23:31.547Z,90.00
2023-05-15T17:25:58.793Z,90.30
2023-05-15T17:28:26.219Z,90.50
2023-05-15T17:30:53.269Z,90.80
2023-05-15T17:33:20.515Z,91.00
2023-05-15T17:35:47.674Z,91.10
2023-05-15T17:38:15.143Z,91.30
2023-05-15T17:40:42.400Z,91.40
2023-05-15T17:43:10.658Z,91.60
2023-05-15T17:45:38.097Z,91.70
2023-05-15T17:48:05.817Z,91.90
2023-05-15T17:50:36.024Z,92.10
2023-05-15T17:53:04.838Z,92.30
2023-05-15T17:55:32.087Z,92.50
2023-05-15T17:57:59.431Z,92.70
2023-05-15T18:00:27.423Z,92.90
2023-05-15T18:02:55.009Z,93.10
2023-05-15T18:05:22.586Z,93.30
2023-05-15T18:07:49.738Z,93.50
2023-05-15T18:10:16.913Z,93.70
2023-05-15T18:12:44.324Z,94.10
2023-05-15T18:15:11.842Z,94.30
2023-05-15T18:17:39.102Z,94.50
2023-05-15T18:20:07.033Z,94.80
2023-05-15T18:22:34.447Z,95.00
2023-05-15T18:25:02.375Z,95.20
2023-05-15T18:27:29.698Z,95.40
2023-05-15T18:29:57.075Z,95.60
2023-05-15T18:32:24.656Z,95.80
2023-05-15T18:34:51.956Z,96.00
2023-05-15T18:37:19.242Z,96.20
2023-05-15T18:39:48.372Z,96.40
2023-05-15T18:42:16.604Z,96.60
2023-05-15T18:44:45.107Z,96.90
2023-05-15T18:47:12.578Z,97.10
2023-05-15T18:49:40.070Z,97.40
2023-05-15T18:52:07.339Z,97.60
2023-05-15T18:54:34.571Z,97.90
2023-05-15T18:57:01.997Z,98.20
2023-05-15T18:59:30.095Z,98.40
2023-05-15T19:01:57.691Z,98.60
2023-05-15T19:04:25.073Z,98.80
2023-05-15T19:06:52.729Z,99.00
2023-05-15T19:09:20.101Z,99.10
2023-05-15T19:11:49.617Z,99.30
2023-05-15T19:14:18.153Z,99.40
2023-05-15T19:16:46.395Z,99.60
2023-05-15T19:19:13.838Z,99.70
2023-05-15T19:21:41.468Z,99.90
2023-05-15T19:24:09.103Z,99.90
2023-05-15T19:26:36.375Z,99.90
2023-05-15T19:29:03.688Z,99.90
2023-05-15T19:31:32.159Z,99.90
2023-05-15T19:34:00.598Z,99.90
2023-05-15T19:36:27.971Z,99.90
2023-05-15T19:38:57.621Z,99.90
2023-05-15T19:41:25.453Z,99.90
2023-05-15T19:43:53.709Z,99.90
2023-05-15T19:46:21.068Z,99.90
2023-05-15T19:48:48.362Z,99.90
2023-05-15T19:51:15.685Z,99.90
2023-05-15T19:53:43.055Z,99.90
2023-05-15T19:56:10.302Z,99.90
2023-05-15T19:58:37.700Z,99.90
2023-05-15T20:01:04.697Z,99.90
2023-05-15T20:03:34.843Z,99.90
2023-05-15T20:06:02.969Z,99.90
2023-05-15T20:08:30.800Z,99.90
2023-05-15T20:10:58.340Z,99.90
2023-05-15T20:13:25.801Z,99.90
2023-05-15T20:15:57.898Z,99.90
2023-05-15T20:18:27.090Z,99.90
2023-05-15T20:20:54.335Z,99.90
2023-05-15T20:23:22.017Z,99.90
2023-05-15T20:25:51.081Z,99.90
2023-05-15T20:28:18.471Z,99.90
2023-05-15T20:30:47.614Z,99.90
2023-05-15T20:33:14.965Z,99.90
2023-05-15T20:35:43.790Z,99.90
2023-05-15T20:38:12.249Z,99.90
2023-05-15T20:40:39.913Z,99.90
2023-05-15T20:43:07.380Z,99.90
2023-05-15T20:45:34.682Z,99.90
2023-05-15T20:48:02.113Z,99.90
2023-05-15T20:50:29.439Z,99.90
2023-05-15T20:52:56.949Z,99.90
2023-05-15T20:55:24.115Z,99.90
2023-05-15T20:57:51.459Z,99.90
2023-05-15T21:00:19.383Z,99.90
2023-05-15T21:02:47.280Z,99.90
2023-05-15T21:05:14.837Z,99.90
2023-05-15T21:07:42.383Z,99.90
2023-05-15T21:10:10.212Z,99.90
2023-05-15T21:12:37.685Z,99.90
2023-05-15T21:15:06.399Z,99.90
2023-05-15T21:17:33.614Z,99.90
2023-05-15T21:20:02.257Z,99.90
2023-05-15T21:22:30.089Z,99.90
2023-05-15T21:24:57.689Z,99.90
2023-05-15T21:27:25.218Z,99.90
2023-05-15T21:29:52.575Z,99.90
2023-05-15T21:32:20.294Z,99.90
2023-05-15T21:34:47.842Z,99.90
2023-05-15T21:37:15.281Z,99.90
2023-05-15T21:39:42.493Z,99.90
2023-05-15T21:42:11.695Z,99.90
2023-05-15T21:44:41.896Z,99.90
2023-05-15T21:47:09.179Z,99.90
2023-05-15T21:49:36.333Z,99.90
2023-05-15T21:52:03.602Z,99.90
2023-05-15T21:54:30.753Z,99.90
2023-05-15T21:56:57.977Z,99.90
2023-05-15T21:59:26.220Z,99.90
2023-05-15T22:01:53.349Z,99.90
2023-05-15T22:04:20.741Z,99.90
2023-05-15T22:06:48.891Z,99.90
2023-05-15T22:09:16.501Z,99.90
2023-05-15T22:11:43.724Z,99.90
2023-05-15T22:14:10.932Z,99.90
2023-05-15T22:16:38.376Z,99.90
2023-05-15T22:19:18.519Z,99.90
2023-05-15T22:21:49.089Z,99.90
2023-05-15T22:24:16.574Z,99.90
2023-05-15T22:26:43.676Z,99.90
2023-05-15T22:29:10.955Z,99.90
2023-05-15T22:31:38.062Z,99.90
2023-05-15T22:34:07.817Z,99.90
2023-05-15T22:36:38.556Z,99.90
2023-05-15T22:39:06.528Z,99.90
2023-05-15T22:41:33.968Z,99.90
2023-05-15T22:44:07.680Z,99.90
2023-05-15T22:46:34.982Z,99.90
2023-05-15T22:49:02.495Z,99.90
2023-05-15T22:51:30.499Z,99.90
2023-05-15T22:53:57.661Z,99.90
2023-05-15T22:56:24.825Z,99.90
2023-05-15T22:58:53.442Z,99.90
2023-05-15T23:01:20.977Z,99.90
2023-05-15T23:03:48.523Z,99.90
2023-05-15T23:06:18.603Z,99.90
2023-05-15T23:08:45.722Z,99.90
2023-05-15T23:11:12.932Z,99.90
2023-05-15T23:13:40.379Z,99.90
2023-05-15T23:16:07.966Z,99.90
2023-05-15T23:18:35.136Z,99.90
2023-05-15T23:21:02.790Z,99.90
2023-05-15T23:23:30.179Z,99.90
2023-05-15T23:25:57.788Z,99.90
2023-05-15T23:28:25.045Z,99.90
2023-05-15T23:30:56.117Z,99.90
2023-05-15T23:33:23.579Z,99.90
2023-05-15T23:35:51.298Z,99.90
2023-05-15T23:38:18.928Z,99.90
2023-05-15T23:40:46.198Z,99.90
2023-05-15T23:43:13.328Z,99.90
2023-05-15T23:45:40.780Z,99.90
2023-05-15T23:48:08.067Z,99.90
2023-05-15T23:50:35.780Z,99.90
2023-05-15T23:53:03.239Z,99.90
2023-05-15T23:55:30.524Z,99.90
2023-05-15T23:57:57.741Z,99.90
